Time;durP1;ratioP1;P1;durP2;ratioP2;P2;SDS_P1;SDS_P2;PMS_P1;PMS_P2;Temp;Humidity;BMP_temperature;BMP_pressure;BME280_temperature;BME280_humidity;BME280_pressure;Samples;Min_cycle;Max_cycle;Signal;HPM_P1;HPM_P2
2024/01/03 00:00:54;;;;;;;0.30;0.30;;;9.50;99.90;;;;;;5017733;28;20480;-40
2024/01/03 00:03:21;;;;;;;0.40;0.40;;;9.40;99.90;;;;;;5019101;28;20040;-39
2024/01/03 00:05:47;;;;;;;0.40;0.40;;;9.40;99.90;;;;;;5016282;28;20163;-38
2024/01/03 00:08:29;;;;;;;0.35;0.30;;;9.50;99.90;;;;;;5023910;28;20137;-40
2024/01/03 00:10:57;;;;;;;0.30;0.30;;;9.50;99.90;;;;;;5020407;28;20601;-40
2024/01/03 00:13:38;;;;;;;1.35;0.47;;;9.40;99.90;;;;;;5018204;28;20514;-37
2024/01/03 00:16:07;;;;;;;2.38;0.47;;;9.30;99.90;;;;;;5018076;28;20034;-37
2024/01/03 00:18:33;;;;;;;0.75;0.40;;;9.30;99.90;;;;;;5022543;28;20057;-39
2024/01/03 00:20:59;;;;;;;0.30;0.30;;;9.20;99.90;;;;;;5014090;28;20442;-32
2024/01/03 00:23:37;;;;;;;0.43;0.43;;;9.20;99.90;;;;;;5022201;28;20041;-32
2024/01/03 00:26:03;;;;;;;0.40;0.40;;;9.20;99.90;;;;;;5017341;28;20096;-35
2024/01/03 00:28:29;;;;;;;0.50;0.50;;;9.30;99.90;;;;;;5022117;28;20096;-35
2024/01/03 00:30:55;;;;;;;0.40;0.40;;;9.30;99.90;;;;;;5022506;28;20034;-33
2024/01/03 00:33:21;;;;;;;0.40;0.40;;;9.30;99.90;;;;;;5016444;28;20707;-34
2024/01/03 00:35:46;;;;;;;0.30;0.30;;;9.40;99.90;;;;;;5026530;28;20040;-32
2024/01/03 00:38:12;;;;;;;0.30;0.30;;;9.30;99.90;;;;;;5017905;28;20079;-33
2024/01/03 00:40:57;;;;;;;0.35;0.35;;;9.30;99.90;;;;;;5018035;28;20036;-35
2024/01/03 00:43:23;;;;;;;0.40;0.40;;;9.30;99.90;;;;;;5014562;28;20100;-34
2024/01/03 00:45:49;;;;;;;0.50;0.50;;;9.20;99.90;;;;;;5019196;28;20474;-32
2024/01/03 00:48:21;;;;;;;0.30;0.30;;;9.20;99.90;;;;;;5024214;28;20048;-32
2024/01/03 00:50:47;;;;;;;0.40;0.40;;;9.20;99.90;;;;;;5025323;28;20025;-32
2024/01/03 00:53:13;;;;;;;0.40;0.40;;;9.10;99.90;;;;;;5021137;28;20029;-32
2024/01/03 00:55:41;;;;;;;0.38;0.38;;;9.20;99.90;;;;;;5017447;28;20124;-33
2024/01/03 00:58:06;;;;;;;0.30;0.30;;;9.10;99.90;;;;;;5015071;28;20112;-35
2024/01/03 01:00:32;;;;;;;0.40;0.40;;;9.10;99.90;;;;;;5017041;28;20697;-33
2024/01/03 01:02:58;;;;;;;0.30;0.30;;;9.10;99.90;;;;;;5017257;28;20030;-32
2024/01/03 01:05:24;;;;;;;0.40;0.40;;;9.10;99.90;;;;;;5017606;28;20026;-32
2024/01/03 01:07:50;;;;;;;0.30;0.30;;;9.30;99.90;;;;;;5020655;28;20021;-34
2024/01/03 01:10:15;;;;;;;0.45;0.40;;;9.20;99.90;;;;;;5019176;28;20040;-32
2024/01/03 01:12:41;;;;;;;0.25;0.25;;;9.20;99.90;;;;;;5019692;28;20041;-34
2024/01/03 01:15:06;;;;;;;0.85;0.32;;;9.20;99.90;;;;;;5021441;28;20034;-32
2024/01/03 01:17:32;;;;;;;0.73;0.50;;;9.20;99.90;;;;;;5021352;28;20117;-34
2024/01/03 01:19:58;;;;;;;0.52;0.52;;;9.20;99.90;;;;;;5015120;28;20474;-32
2024/01/03 01:22:25;;;;;;;1.20;0.57;;;9.10;99.90;;;;;;5015299;28;20486;-32
2024/01/03 01:24:51;;;;;;;0.60;0.60;;;9.10;99.90;;;;;;5019195;28;20034;-35
2024/01/03 01:27:16;;;;;;;0.30;0.30;;;9.10;99.90;;;;;;5016979;28;20041;-33
2024/01/03 01:29:42;;;;;;;0.40;0.40;;;9.10;99.90;;;;;;5013639;28;20775;-33
2024/01/03 01:32:08;;;;;;;0.45;0.45;;;9.20;99.90;;;;;;5015879;28;20041;-32
2024/01/03 01:34:33;;;;;;;0.40;0.40;;;9.20;99.90;;;;;;5014894;28;20057;-35
2024/01/03 01:36:59;;;;;;;0.40;0.40;;;9.10;99.90;;;;;;5020096;28;20064;-32
2024/01/03 01:39:24;;;;;;;0.50;0.50;;;9.10;99.90;;;;;;5014347;28;20021;-33
2024/01/03 01:41:50;;;;;;;0.40;0.40;;;9.10;99.90;;;;;;5020887;28;20514;-32
2024/01/03 01:44:15;;;;;;;0.40;0.40;;;9.00;99.90;;;;;;5018075;28;20483;-33
2024/01/03 01:46:44;;;;;;;0.40;0.40;;;9.10;99.90;;;;;;5023256;28;20053;-31
2024/01/03 01:49:09;;;;;;;0.30;0.30;;;9.20;99.90;;;;;;5021417;28;20084;-32
2024/01/03 01:51:38;;;;;;;0.40;0.40;;;9.10;99.90;;;;;;5019464;28;20515;-33
2024/01/03 01:54:04;;;;;;;1.60;0.40;;;9.00;99.90;;;;;;5019619;28;20030;-32
2024/01/03 01:56:32;;;;;;;0.20;0.20;;;9.00;99.90;;;;;;5024895;28;20041;-32
2024/01/03 01:58:58;;;;;;;0.38;0.38;;;8.90;99.90;;;;;;5020859;28;20068;-33
2024/01/03 02:01:24;;;;;;;0.75;0.32;;;8.90;99.90;;;;;;5017006;28;20030;-32
2024/01/03 02:03:51;;;;;;;0.20;0.20;;;8.90;99.90;;;;;;5019205;28;20483;-34
2024/01/03 02:06:19;;;;;;;0.30;0.30;;;9.00;99.90;;;;;;5018292;28;20041;-32
2024/01/03 02:08:45;;;;;;;0.30;0.30;;;9.00;99.90;;;;;;5020573;28;20037;-33
2024/01/03 02:11:10;;;;;;;0.40;0.40;;;9.00;99.90;;;;;;5021105;28;20059;-37
2024/01/03 02:13:36;;;;;;;0.20;0.20;;;9.00;99.90;;;;;;5019563;28;20029;-33
2024/01/03 02:16:01;;;;;;;1.27;0.40;;;9.00;99.90;;;;;;5019796;28;20467;-32
2024/01/03 02:18:27;;;;;;;0.38;0.38;;;9.00;99.90;;;;;;5018181;28;20028;-32
2024/01/03 02:20:55;;;;;;;0.32;0.32;;;9.00;99.90;;;;;;5025202;28;20607;-32
2024/01/03 02:23:21;;;;;;;0.30;0.30;;;9.00;99.90;;;;;;5016370;28;20462;-33
2024/01/03 02:25:46;;;;;;;0.30;0.30;;;9.00;99.90;;;;;;5016614;28;20030;-33
2024/01/03 02:28:12;;;;;;;0.30;0.30;;;9.00;99.90;;;;;;5023230;28;20048;-32
2024/01/03 02:30:41;;;;;;;0.30;0.30;;;9.00;99.90;;;;;;5019798;28;20041;-35
2024/01/03 02:33:07;;;;;;;0.30;0.30;;;8.90;99.90;;;;;;5017309;28;20049;-32
2024/01/03 02:35:38;;;;;;;0.30;0.30;;;8.90;99.90;;;;;;5020796;28;20033;-34
2024/01/03 02:38:04;;;;;;;0.30;0.30;;;8.90;99.90;;;;;;5020422;28;20377;-35
2024/01/03 02:40:30;;;;;;;0.30;0.30;;;8.90;99.90;;;;;;5023386;28;20053;-32
2024/01/03 02:42:55;;;;;;;0.40;0.40;;;8.80;99.90;;;;;;5023656;28;20018;-34
2024/01/03 02:45:21;;;;;;;0.30;0.30;;;8.80;99.90;;;;;;5020284;28;20033;-34
2024/01/03 02:47:47;;;;;;;0.63;0.52;;;8.80;99.90;;;;;;5017611;28;20033;-34
2024/01/03 02:50:12;;;;;;;0.45;0.45;;;8.80;99.90;;;;;;5016144;28;20394;-32
2024/01/03 02:52:38;;;;;;;0.30;0.30;;;8.90;99.90;;;;;;5015715;28;20095;-34
2024/01/03 02:55:04;;;;;;;0.43;0.43;;;8.90;99.90;;;;;;5019882;28;20039;-35
2024/01/03 02:57:30;;;;;;;0.40;0.40;;;8.90;99.90;;;;;;5022004;28;20109;-32
2024/01/03 02:59:55;;;;;;;0.30;0.30;;;8.90;99.90;;;;;;5022888;28;20030;-35
2024/01/03 03:02:21;;;;;;;0.32;0.32;;;8.90;99.90;;;;;;5018857;28;20033;-33
2024/01/03 03:04:46;;;;;;;2.22;0.60;;;8.90;99.90;;;;;;5019985;28;20104;-32
2024/01/03 03:07:12;;;;;;;0.30;0.30;;;9.00;99.90;;;;;;5020843;28;20390;-34
2024/01/03 03:09:38;;;;;;;0.40;0.40;;;8.90;99.90;;;;;;5020777;28;20033;-34
2024/01/03 03:12:03;;;;;;;0.32;0.32;;;8.90;99.90;;;;;;5014184;28;20395;-34
2024/01/03 03:14:29;;;;;;;0.35;0.35;;;8.90;99.90;;;;;;5018247;28;20508;-32
2024/01/03 03:16:55;;;;;;;1.50;0.40;;;8.80;99.90;;;;;;5019543;28;20108;-34
2024/01/03 03:19:20;;;;;;;0.30;0.30;;;8.80;99.90;;;;;;5018248;28;20758;-34
2024/01/03 03:21:46;;;;;;;0.40;0.40;;;8.80;99.90;;;;;;5020479;28;20040;-33
2024/01/03 03:24:11;;;;;;;0.45;0.40;;;8.70;99.90;;;;;;5024760;28;20029;-32
2024/01/03 03:26:37;;;;;;;0.32;0.32;;;8.70;99.90;;;;;;5022045;28;20061;-32
2024/01/03 03:29:02;;;;;;;0.40;0.40;;;8.70;99.90;;;;;;5013784;28;20037;-34
2024/01/03 03:31:28;;;;;;;1.92;0.60;;;8.70;99.90;;;;;;5020509;28;20128;-33
2024/01/03 03:33:53;;;;;;;0.30;0.30;;;8.60;99.90;;;;;;5018534;28;20049;-32
2024/01/03 03:36:21;;;;;;;0.40;0.40;;;8.60;99.90;;;;;;5017659;28;20395;-32
2024/01/03 03:38:47;;;;;;;0.30;0.30;;;8.60;99.90;;;;;;5018073;28;20112;-32
2024/01/03 03:41:13;;;;;;;0.43;0.43;;;8.60;99.90;;;;;;5019688;28;20463;-32
2024/01/03 03:43:40;;;;;;;0.57;0.50;;;8.50;99.90;;;;;;5022317;28;20087;-32
2024/01/03 03:46:06;;;;;;;0.30;0.30;;;8.50;99.90;;;;;;5024737;28;20033;-32
2024/01/03 03:48:32;;;;;;;0.40;0.40;;;8.50;99.90;;;;;;5024604;28;20552;-32
2024/01/03 03:50:57;;;;;;;0.40;0.40;;;8.50;99.90;;;;;;5019732;28;20025;-37
2024/01/03 03:53:23;;;;;;;0.40;0.40;;;8.50;99.90;;;;;;5013398;28;20107;-32
2024/01/03 03:55:49;;;;;;;0.40;0.40;;;8.50;99.90;;;;;;5017666;28;20487;-32
2024/01/03 03:58:14;;;;;;;0.85;0.47;;;8.40;99.90;;;;;;5011041;28;20057;-34
2024/01/03 04:00:40;;;;;;;0.60;0.60;;;8.40;99.90;;;;;;5016971;28;20033;-35
2024/01/03 04:03:07;;;;;;;0.40;0.40;;;8.30;99.90;;;;;;5015011;28;20033;-36
2024/01/03 04:05:34;;;;;;;0.40;0.40;;;8.30;99.90;;;;;;5019877;28;20060;-37
2024/01/03 04:08:00;;;;;;;0.40;0.40;;;8.30;99.90;;;;;;5018277;28;20276;-35
2024/01/03 04:10:26;;;;;;;0.40;0.40;;;8.30;99.90;;;;;;5019599;28;20099;-34
2024/01/03 04:12:52;;;;;;;0.77;0.60;;;8.30;99.90;;;;;;5022902;28;20030;-34
2024/01/03 04:15:19;;;;;;;0.47;0.47;;;8.30;99.90;;;;;;5018666;28;20088;-35
2024/01/03 04:17:44;;;;;;;0.50;0.50;;;8.30;99.90;;;;;;5016722;28;20033;-37
2024/01/03 04:20:10;;;;;;;0.47;0.47;;;8.30;99.90;;;;;;5017462;28;20040;-35
2024/01/03 04:22:38;;;;;;;0.60;0.40;;;8.30;99.90;;;;;;5015916;28;20064;-34
2024/01/03 04:25:04;;;;;;;0.40;0.40;;;8.30;99.90;;;;;;5016770;28;20403;-35
2024/01/03 04:27:29;;;;;;;0.77;0.50;;;8.30;99.90;;;;;;5019271;28;20482;-33
2024/01/03 04:29:55;;;;;;;0.50;0.50;;;8.40;99.90;;;;;;5016551;28;20037;-34
2024/01/03 04:32:20;;;;;;;0.47;0.47;;;8.40;99.90;;;;;;5014012;28;20121;-33
2024/01/03 04:34:46;;;;;;;0.50;0.50;;;8.50;99.90;;;;;;5018435;28;20029;-33
2024/01/03 04:37:12;;;;;;;0.43;0.43;;;8.50;99.90;;;;;;5023406;28;20487;-35
2024/01/03 04:39:37;;;;;;;0.40;0.40;;;8.50;99.90;;;;;;5015317;28;20159;-32
2024/01/03 04:42:03;;;;;;;0.50;0.50;;;8.50;99.90;;;;;;5013025;28;20517;-35
2024/01/03 04:44:29;;;;;;;0.50;0.50;;;8.50;99.90;;;;;;5016132;28;20030;-34
2024/01/03 04:46:55;;;;;;;0.60;0.60;;;8.50;99.90;;;;;;5015627;28;20116;-35
2024/01/03 04:49:20;;;;;;;0.55;0.55;;;8.40;99.90;;;;;;5020687;28;20497;-35
2024/01/03 04:51:46;;;;;;;0.50;0.50;;;8.50;99.90;;;;;;5013945;28;20033;-32
2024/01/03 04:54:11;;;;;;;0.68;0.60;;;8.50;99.90;;;;;;5021723;28;20030;-32
2024/01/03 04:56:37;;;;;;;1.55;0.50;;;8.50;99.90;;;;;;5015388;28;20042;-33
2024/01/03 04:59:03;;;;;;;0.40;0.40;;;8.50;99.90;;;;;;5018823;28;20087;-34
2024/01/03 05:01:29;;;;;;;0.50;0.50;;;8.40;99.90;;;;;;5020562;28;20044;-39
2024/01/03 05:03:55;;;;;;;0.60;0.60;;;8.50;99.90;;;;;;5017847;28;20022;-39
2024/01/03 05:06:21;;;;;;;0.32;0.32;;;8.40;99.90;;;;;;5013644;28;20390;-39
2024/01/03 05:08:46;;;;;;;0.40;0.40;;;8.40;99.90;;;;;;5018209;28;20059;-42
2024/01/03 05:11:12;;;;;;;0.50;0.50;;;8.30;99.90;;;;;;5017711;28;20079;-41
2024/01/03 05:13:38;;;;;;;0.47;0.47;;;8.40;99.90;;;;;;5016243;28;20226;-41
2024/01/03 05:16:04;;;;;;;0.50;0.50;;;8.40;99.90;;;;;;5017937;28;20100;-42
2024/01/03 05:18:30;;;;;;;0.47;0.47;;;8.40;99.90;;;;;;5020300;28;20026;-41
2024/01/03 05:20:56;;;;;;;1.45;0.40;;;8.40;99.90;;;;;;5018984;28;20083;-39
2024/01/03 05:23:22;;;;;;;0.40;0.40;;;8.40;99.90;;;;;;5023577;28;20399;-38
2024/01/03 05:25:48;;;;;;;0.47;0.47;;;8.40;99.90;;;;;;5026840;28;20037;-39
2024/01/03 05:28:13;;;;;;;0.40;0.40;;;8.30;99.90;;;;;;5023465;28;20041;-40
2024/01/03 05:30:42;;;;;;;0.32;0.32;;;8.40;99.90;;;;;;5020792;28;20093;-39
2024/01/03 05:33:07;;;;;;;1.27;1.15;;;8.40;99.90;;;;;;5021801;28;20041;-38
2024/01/03 05:35:33;;;;;;;0.35;0.35;;;8.50;99.90;;;;;;5023026;28;20056;-41
2024/01/03 05:37:59;;;;;;;0.47;0.40;;;8.50;99.90;;;;;;5014435;28;20502;-41
2024/01/03 05:40:24;;;;;;;0.63;0.40;;;8.40;99.90;;;;;;5025170;28;20113;-41
2024/01/03 05:42:50;;;;;;;1.55;0.52;;;8.40;99.90;;;;;;5018509;28;20018;-40
2024/01/03 05:45:15;;;;;;;0.40;0.40;;;8.30;99.90;;;;;;5022703;28;20988;-40
2024/01/03 05:47:41;;;;;;;0.30;0.30;;;8.30;99.90;;;;;;5024639;28;20563;-40
2024/01/03 05:50:10;;;;;;;0.28;0.28;;;8.30;99.90;;;;;;5024553;28;20033;-40
2024/01/03 05:52:36;;;;;;;0.43;0.43;;;8.30;99.90;;;;;;5020760;28;20080;-37
2024/01/03 05:55:02;;;;;;;0.32;0.32;;;8.40;99.90;;;;;;5024257;28;20029;-41
2024/01/03 05:57:28;;;;;;;0.50;0.50;;;8.30;99.90;;;;;;5021021;28;20060;-39
2024/01/03 05:59:53;;;;;;;0.40;0.40;;;8.40;99.90;;;;;;5020563;28;20057;-39
2024/01/03 06:02:19;;;;;;;0.30;0.30;;;8.40;99.90;;;;;;5014391;28;20042;-40
2024/01/03 06:04:46;;;;;;;0.30;0.30;;;8.40;99.90;;;;;;5024606;28;20056;-41
2024/01/03 06:07:12;;;;;;;0.30;0.30;;;8.50;99.90;;;;;;5020157;28;20033;-40
2024/01/03 06:09:38;;;;;;;0.30;0.30;;;8.50;99.90;;;;;;5020196;28;20038;-42
2024/01/03 06:12:04;;;;;;;0.30;0.30;;;8.50;99.90;;;;;;5021108;28;20503;-37
2024/01/03 06:14:29;;;;;;;0.20;0.20;;;8.40;99.90;;;;;;5028605;28;20065;-32
2024/01/03 06:16:55;;;;;;;0.30;0.30;;;8.40;99.90;;;;;;5019582;28;20032;-32
2024/01/03 06:19:20;;;;;;;0.40;0.40;;;8.40;99.90;;;;;;5024491;28;20029;-33
2024/01/03 06:21:46;;;;;;;0.28;0.28;;;8.30;99.90;;;;;;5017617;28;20022;-33
2024/01/03 06:24:12;;;;;;;0.38;0.38;;;8.30;99.90;;;;;;5019827;28;20092;-32
2024/01/03 06:26:38;;;;;;;0.55;0.55;;;8.30;99.90;;;;;;5020899;28;20476;-35
2024/01/03 06:29:04;;;;;;;1.38;0.50;;;8.20;99.90;;;;;;5022716;28;20037;-34
2024/01/03 06:31:29;;;;;;;0.80;0.40;;;8.20;99.90;;;;;;5017782;28;20099;-35
2024/01/03 06:33:55;;;;;;;0.40;0.40;;;8.20;99.90;;;;;;5017859;28;20414;-33
2024/01/03 06:36:21;;;;;;;0.40;0.40;;;8.10;99.90;;;;;;5018247;28;20049;-34
2024/01/03 06:38:47;;;;;;;0.35;0.35;;;8.00;99.90;;;;;;5020915;28;20024;-34
2024/01/03 06:41:13;;;;;;;0.65;0.65;;;8.00;99.90;;;;;;5022490;28;20030;-32
2024/01/03 06:43:38;;;;;;;0.40;0.40;;;8.00;99.90;;;;;;5017426;28;20052;-32
2024/01/03 06:46:05;;;;;;;0.57;0.40;;;8.00;99.90;;;;;;5023109;28;20505;-35
2024/01/03 06:48:30;;;;;;;0.50;0.50;;;8.00;99.90;;;;;;5016303;28;20034;-32
2024/01/03 06:50:56;;;;;;;0.38;0.38;;;8.00;99.90;;;;;;5026492;28;20445;-32
2024/01/03 06:53:21;;;;;;;0.40;0.40;;;8.00;99.90;;;;;;5019808;28;20029;-34
2024/01/03 06:55:47;;;;;;;0.30;0.30;;;8.00;99.90;;;;;;5027208;28;20466;-32
2024/01/03 06:58:13;;;;;;;2.13;0.75;;;8.10;99.90;;;;;;5022314;28;20392;-32
2024/01/03 07:00:38;;;;;;;0.40;0.40;;;8.10;99.90;;;;;;5021203;28;20478;-34
2024/01/03 07:03:04;;;;;;;0.40;0.40;;;8.10;99.90;;;;;;5015476;28;20086;-33
2024/01/03 07:05:30;;;;;;;0.43;0.43;;;8.00;99.90;;;;;;5019077;28;20032;-33
2024/01/03 07:07:58;;;;;;;0.45;0.40;;;8.10;99.90;;;;;;5020206;28;20026;-35
2024/01/03 07:10:31;;;;;;;1.03;0.50;;;8.00;99.90;;;;;;5021944;28;20527;-34
2024/01/03 07:12:58;;;;;;;0.82;0.80;;;8.00;99.90;;;;;;5025001;28;20336;-34
2024/01/03 07:15:25;;;;;;;0.47;0.47;;;8.00;99.90;;;;;;5021820;28;20026;-34
2024/01/03 07:17:50;;;;;;;0.50;0.50;;;8.00;99.90;;;;;;5016733;28;20017;-32
2024/01/03 07:20:16;;;;;;;0.55;0.50;;;8.00;99.90;;;;;;5021213;28;20048;-34
2024/01/03 07:22:41;;;;;;;0.38;0.38;;;8.00;99.90;;;;;;5021746;28;20167;-34
2024/01/03 07:25:07;;;;;;;0.93;0.60;;;8.00;99.90;;;;;;5025020;28;20022;-33
2024/01/03 07:27:33;;;;;;;0.47;0.47;;;8.00;99.90;;;;;;5026622;28;20483;-31
2024/01/03 07:29:58;;;;;;;0.60;0.60;;;8.00;99.90;;;;;;5015494;28;20022;-34
2024/01/03 07:32:24;;;;;;;0.52;0.50;;;8.00;99.90;;;;;;5019185;28;20091;-32
2024/01/03 07:34:50;;;;;;;0.50;0.50;;;8.00;99.90;;;;;;5014660;28;20088;-34
2024/01/03 07:37:15;;;;;;;0.57;0.50;;;8.10;99.90;;;;;;5020639;28;20475;-32
2024/01/03 07:39:41;;;;;;;0.47;0.47;;;8.10;99.90;;;;;;5015404;28;20115;-34
2024/01/03 07:42:07;;;;;;;0.60;0.60;;;8.20;99.90;;;;;;5019389;28;20410;-34
2024/01/03 07:44:41;;;;;;;0.52;0.52;;;8.30;99.90;;;;;;5016965;28;20109;-35
2024/01/03 07:47:07;;;;;;;0.95;0.95;;;8.30;99.90;;;;;;5023046;28;20108;-33
2024/01/03 07:49:33;;;;;;;0.70;0.70;;;8.40;99.90;;;;;;5031461;28;20048;-33
2024/01/03 07:51:59;;;;;;;0.50;0.50;;;8.40;99.90;;;;;;5025831;28;20041;-33
2024/01/03 07:54:24;;;;;;;0.70;0.70;;;8.50;99.90;;;;;;5022547;28;20039;-31
2024/01/03 07:56:50;;;;;;;0.60;0.60;;;8.40;99.90;;;;;;5026234;28;20017;-33
2024/01/03 07:59:15;;;;;;;1.48;0.50;;;8.50;99.90;;;;;;5028188;28;20313;-36
2024/01/03 08:01:41;;;;;;;1.38;0.80;;;8.50;99.90;;;;;;5019053;28;20045;-32
2024/01/03 08:04:06;;;;;;;1.27;0.90;;;8.50;99.90;;;;;;5015964;28;20052;-35
2024/01/03 08:06:32;;;;;;;1.40;0.50;;;8.60;99.90;;;;;;5019698;28;20093;-34
2024/01/03 08:08:58;;;;;;;1.52;0.77;;;8.60;99.90;;;;;;5021265;28;20061;-31
2024/01/03 08:11:23;;;;;;;1.63;0.77;;;8.60;99.90;;;;;;5018507;28;20101;-35
2024/01/03 08:13:49;;;;;;;1.95;0.70;;;8.60;99.90;;;;;;5024409;28;20624;-31
2024/01/03 08:16:15;;;;;;;0.50;0.50;;;8.60;99.90;;;;;;5021419;28;20036;-34
2024/01/03 08:18:43;;;;;;;0.80;0.60;;;8.60;99.90;;;;;;5016782;28;20021;-34
2024/01/03 08:21:08;;;;;;;0.90;0.50;;;8.60;99.90;;;;;;5022767;28;20061;-32
2024/01/03 08:23:34;;;;;;;2.55;0.68;;;8.70;99.90;;;;;;5020972;28;20053;-34
2024/01/03 08:25:59;;;;;;;6.15;1.10;;;8.60;99.90;;;;;;5015253;28;20616;-33
2024/01/03 08:28:25;;;;;;;1.27;0.75;;;8.60;99.90;;;;;;5015782;28;20091;-34
2024/01/03 08:30:52;;;;;;;0.57;0.57;;;8.60;99.90;;;;;;5016865;28;20160;-39
2024/01/03 08:33:17;;;;;;;1.00;0.63;;;8.60;99.90;;;;;;5012976;28;20076;-40
2024/01/03 08:35:43;;;;;;;1.33;0.80;;;8.50;99.90;;;;;;5018722;28;20037;-40
2024/01/03 08:38:09;;;;;;;1.15;0.68;;;8.60;99.90;;;;;;5019361;28;20467;-40
2024/01/03 08:40:35;;;;;;;0.50;0.50;;;8.60;99.90;;;;;;5019741;28;20033;-40
2024/01/03 08:43:01;;;;;;;2.90;0.73;;;8.70;99.90;;;;;;5021449;28;20494;-40
2024/01/03 08:45:26;;;;;;;0.50;0.50;;;8.70;99.90;;;;;;5018066;28;20030;-39
2024/01/03 08:47:52;;;;;;;0.75;0.75;;;8.80;99.90;;;;;;5014311;28;20038;-39
2024/01/03 08:50:18;;;;;;;0.60;0.60;;;8.80;99.90;;;;;;5017144;28;20032;-39
2024/01/03 08:52:44;;;;;;;2.75;0.82;;;8.90;99.90;;;;;;5013397;28;20478;-40
2024/01/03 08:55:10;;;;;;;1.02;0.77;;;8.90;99.90;;;;;;5015711;28;20096;-40
2024/01/03 08:57:37;;;;;;;0.40;0.40;;;8.90;99.90;;;;;;5012988;28;20095;-40
2024/01/03 09:00:03;;;;;;;1.77;0.60;;;8.80;99.90;;;;;;5020353;28;20357;-40
2024/01/03 09:02:29;;;;;;;1.30;0.43;;;8.80;99.90;;;;;;5012326;28;20030;-35
2024/01/03 09:04:54;;;;;;;2.78;0.50;;;8.90;99.90;;;;;;5012291;28;20030;-37
2024/01/03 09:07:20;;;;;;;1.08;0.82;;;9.00;99.90;;;;;;5020492;28;20041;-41
2024/01/03 09:09:46;;;;;;;0.90;0.90;;;9.10;99.90;;;;;;5020497;28;20025;-38
2024/01/03 09:12:11;;;;;;;2.47;0.80;;;9.20;99.90;;;;;;5023422;28;20064;-39
2024/01/03 09:14:37;;;;;;;0.95;0.60;;;9.30;99.90;;;;;;5023650;28;20029;-40
2024/01/03 09:17:03;;;;;;;0.70;0.70;;;9.40;99.90;;;;;;5014690;28;20175;-40
2024/01/03 09:19:28;;;;;;;2.15;1.17;;;9.60;99.90;;;;;;5014665;28;20042;-38
2024/01/03 09:21:55;;;;;;;3.03;1.25;;;9.60;99.90;;;;;;5018972;28;20478;-39
2024/01/03 09:24:20;;;;;;;0.63;0.57;;;9.70;99.90;;;;;;5017688;28;20032;-42
2024/01/03 09:26:47;;;;;;;1.55;0.70;;;9.80;99.90;;;;;;5011784;28;20022;-39
2024/01/03 09:29:12;;;;;;;2.58;0.98;;;9.80;99.90;;;;;;5023944;28;20487;-40
2024/01/03 09:31:43;;;;;;;2.83;0.80;;;9.80;99.90;;;;;;5015852;28;20090;-39
2024/01/03 09:34:08;;;;;;;1.92;0.80;;;9.70;99.90;;;;;;5018987;28;20069;-40
2024/01/03 09:36:34;;;;;;;2.25;0.93;;;9.70;99.90;;;;;;5014172;28;20033;-40
2024/01/03 09:39:00;;;;;;;1.67;0.80;;;9.70;99.90;;;;;;5020846;28;20026;-39
2024/01/03 09:41:26;;;;;;;2.20;0.68;;;9.80;99.90;;;;;;5017451;28;20018;-39
2024/01/03 09:44:01;;;;;;;1.67;0.60;;;9.80;99.90;;;;;;5021453;28;20568;-40
2024/01/03 09:46:27;;;;;;;0.73;0.57;;;9.80;99.90;;;;;;5014494;28;20073;-40
2024/01/03 09:48:52;;;;;;;1.70;0.50;;;9.80;99.90;;;;;;5016780;28;20505;-36
2024/01/03 09:51:21;;;;;;;0.65;0.63;;;9.80;99.90;;;;;;5024115;28;20033;-41
2024/01/03 09:53:51;;;;;;;1.40;0.75;;;9.80;99.90;;;;;;5015330;28;20188;-39
2024/01/03 09:56:16;;;;;;;0.52;0.43;;;9.90;99.90;;;;;;5016508;28;20080;-41
2024/01/03 09:58:44;;;;;;;0.30;0.30;;;10.00;99.90;;;;;;5017027;28;20021;-38
2024/01/03 10:01:10;;;;;;;0.68;0.60;;;10.00;99.90;;;;;;5019478;28;20040;-38
2024/01/03 10:03:36;;;;;;;1.85;0.70;;;10.00;99.90;;;;;;5019383;28;20021;-40
2024/01/03 10:06:04;;;;;;;0.47;0.35;;;10.00;99.90;;;;;;5019062;28;20022;-41
2024/01/03 10:08:30;;;;;;;;;;;10.00;99.90;;;;;;5021715;28;20037;-35
2024/01/03 10:10:56;;;;;;;2.30;0.90;;;9.90;99.90;;;;;;5022084;28;19905;-40
2024/01/03 10:13:28;;;;;;;2.85;0.65;;;9.90;99.90;;;;;;5021055;28;20505;-41
2024/01/03 10:15:54;;;;;;;0.73;0.60;;;9.90;99.90;;;;;;5025172;28;20021;-36
2024/01/03 10:18:22;;;;;;;0.47;0.47;;;9.90;99.90;;;;;;5019035;28;20041;-41
2024/01/03 10:20:47;;;;;;;0.70;0.68;;;9.90;99.90;;;;;;5014586;28;20216;-41
2024/01/03 10:23:16;;;;;;;1.15;0.70;;;10.00;99.90;;;;;;5018293;28;20500;-39
2024/01/03 10:25:43;;;;;;;0.90;0.65;;;10.00;99.90;;;;;;5025448;28;20018;-42
2024/01/03 10:28:15;;;;;;;3.08;0.70;;;10.00;99.90;;;;;;5017172;28;20112;-41
2024/01/03 10:30:41;;;;;;;1.70;0.68;;;10.00;99.90;;;;;;5022663;28;20375;-40
2024/01/03 10:33:09;;;;;;;1.67;0.57;;;10.00;99.90;;;;;;5015746;28;20045;-39
2024/01/03 10:35:36;;;;;;;1.13;0.60;;;10.00;99.90;;;;;;5019346;28;20029;-41
2024/01/03 10:38:03;;;;;;;1.65;0.63;;;10.00;99.90;;;;;;5022280;28;20060;-42
2024/01/03 10:40:30;;;;;;;0.70;0.70;;;10.00;99.90;;;;;;5021175;28;20033;-36
2024/01/03 10:42:56;;;;;;;1.35;0.77;;;10.10;99.90;;;;;;5015930;28;20433;-38
2024/01/03 10:45:23;;;;;;;0.38;0.38;;;10.00;99.90;;;;;;5017809;28;20021;-39
2024/01/03 10:47:49;;;;;;;1.80;0.75;;;10.00;99.90;;;;;;5017940;28;20117;-37
2024/01/03 10:50:16;;;;;;;1.75;0.90;;;10.00;99.90;;;;;;5010269;28;20025;-41
2024/01/03 10:52:43;;;;;;;0.80;0.80;;;10.10;99.90;;;;;;5016071;28;20124;-41
2024/01/03 10:55:22;;;;;;;1.73;0.40;;;10.20;99.90;;;;;;5020306;28;20105;-41
2024/01/03 10:57:58;;;;;;;0.57;0.57;;;10.30;99.90;;;;;;5013917;28;20503;-38
2024/01/03 11:00:55;;;;;;;0.93;0.60;;;10.40;99.90;;;;;;5019151;28;20022;-40
2024/01/03 11:03:39;;;;;;;2.83;0.65;;;10.40;99.90;;;;;;5021989;28;20017;-42
2024/01/03 11:06:22;;;;;;;0.38;0.38;;;10.30;99.90;;;;;;5016402;28;20038;-39
2024/01/03 11:08:58;;;;;;;1.35;0.60;;;10.20;99.90;;;;;;5018488;28;20033;-40
2024/01/03 11:11:29;;;;;;;1.08;0.65;;;10.10;99.90;;;;;;5018375;28;20040;-41
2024/01/03 11:13:56;;;;;;;0.82;0.60;;;10.10;99.90;;;;;;5017290;28;20047;-38
2024/01/03 11:16:37;;;;;;;1.23;0.60;;;10.20;99.90;;;;;;5016541;28;20032;-43
2024/01/03 11:19:04;;;;;;;0.50;0.50;;;10.30;99.90;;;;;;5018770;28;20144;-39
2024/01/03 11:21:35;;;;;;;1.00;0.70;;;10.40;99.90;;;;;;5013726;28;20033;-35
2024/01/03 11:24:01;;;;;;;1.55;0.80;;;10.50;99.90;;;;;;5024994;28;20034;-41
2024/01/03 11:26:52;;;;;;;1.48;0.80;;;10.50;99.90;;;;;;5017870;28;20030;-39
2024/01/03 11:29:48;;;;;;;1.08;0.60;;;10.60;99.90;;;;;;5019822;28;20041;-42
2024/01/03 11:32:37;;;;;;;0.65;0.65;;;10.50;99.90;;;;;;5017972;28;20029;-41
2024/01/03 11:35:05;;;;;;;2.67;0.70;;;10.50;99.90;;;;;;5019503;28;20476;-42
2024/01/03 11:37:35;;;;;;;;;;;10.60;99.90;;;;;;5017536;28;20021;-40
2024/01/03 11:40:01;;;;;;;0.85;0.73;;;10.50;99.90;;;;;;5022254;28;20527;-42
2024/01/03 11:42:38;;;;;;;1.35;0.47;;;10.60;99.90;;;;;;5016256;28;20471;-39
2024/01/03 11:45:17;;;;;;;2.57;0.67;;;10.50;99.90;;;;;;5018110;28;20029;-40
2024/01/03 11:47:49;;;;;;;2.20;0.88;;;10.60;99.90;;;;;;5012620;28;20026;-42
2024/01/03 11:50:16;;;;;;;0.55;0.55;;;10.50;99.90;;;;;;5019871;28;20526;-39
2024/01/03 11:52:45;;;;;;;1.30;0.70;;;10.40;99.90;;;;;;5013974;28;20022;-42
2024/01/03 11:55:17;;;;;;;1.13;0.60;;;10.30;99.90;;;;;;5018580;28;20021;-37
2024/01/03 11:57:45;;;;;;;1.67;0.55;;;10.20;99.90;;;;;;5017049;28;20559;-40
2024/01/03 12:00:15;;;;;;;0.95;0.85;;;10.20;99.90;;;;;;5022426;28;20441;-36
2024/01/03 12:02:54;;;;;;;2.05;0.65;;;10.20;99.90;;;;;;5015899;28;20040;-40
2024/01/03 12:05:23;;;;;;;0.90;0.90;;;10.10;99.90;;;;;;5015382;28;20101;-40
2024/01/03 12:07:49;;;;;;;1.02;0.70;;;10.10;99.90;;;;;;5016341;28;20037;-41
2024/01/03 12:10:17;;;;;;;1.02;0.60;;;10.20;99.90;;;;;;5020781;28;20028;-42
2024/01/03 12:12:48;;;;;;;0.50;0.50;;;10.20;99.90;;;;;;5017930;28;20026;-41
2024/01/03 12:15:23;;;;;;;0.65;0.65;;;10.40;99.90;;;;;;5032762;28;20135;-42
2024/01/03 12:17:49;;;;;;;0.63;0.63;;;10.40;99.90;;;;;;5014521;28;20055;-42
2024/01/03 12:20:18;;;;;;;0.75;0.60;;;10.40;99.90;;;;;;5023628;28;20025;-41
2024/01/03 12:22:44;;;;;;;1.25;0.77;;;10.50;99.90;;;;;;5015770;28;20022;-40
2024/01/03 12:25:26;;;;;;;0.50;0.50;;;10.50;99.90;;;;;;5020095;28;20231;-42
2024/01/03 12:27:56;;;;;;;0.43;0.43;;;10.60;99.90;;;;;;5015927;28;20834;-36
2024/01/03 12:30:22;;;;;;;2.35;0.70;;;10.70;99.90;;;;;;5023551;28;20032;-40
2024/01/03 12:32:49;;;;;;;0.52;0.52;;;10.80;99.90;;;;;;5014204;28;20046;-37
2024/01/03 12:35:17;;;;;;;0.93;0.93;;;10.90;99.90;;;;;;5015259;28;20112;-40
2024/01/03 12:37:46;;;;;;;0.68;0.50;;;10.90;99.90;;;;;;5012467;28;20479;-40
2024/01/03 12:40:16;;;;;;;1.40;0.75;;;11.00;99.90;;;;;;5023303;28;20164;-42
2024/01/03 12:42:46;;;;;;;1.23;0.77;;;11.00;99.90;;;;;;5023635;28;20522;-39
2024/01/03 12:45:12;;;;;;;0.40;0.40;;;11.00;99.90;;;;;;5016018;28;20061;-40
2024/01/03 12:47:39;;;;;;;2.83;0.60;;;11.00;99.90;;;;;;5016056;28;20065;-40
2024/01/03 12:50:07;;;;;;;0.82;0.70;;;11.00;99.90;;;;;;5018554;28;20392;-41
2024/01/03 12:52:34;;;;;;;1.00;0.52;;;10.90;99.90;;;;;;5017342;28;20036;-36
2024/01/03 12:55:00;;;;;;;0.60;0.60;;;11.00;99.90;;;;;;5014975;28;20079;-39